createdAt,value
2018-08-06T00:00:01.196Z,2.37
2018-08-06T00:01:04.579Z,2.60
2018-08-06T00:02:07.905Z,2.10
2018-08-06T00:03:11.262Z,2.25
2018-08-06T00:04:14.600Z,2.37
2018-08-06T00:05:18.323Z,2.50
2018-08-06T00:06:21.690Z,2.10
2018-08-06T00:07:25.016Z,2.30
2018-08-06T00:08:28.346Z,2.30
2018-08-06T00:09:31.698Z,1.90
2018-08-06T00:10:35.079Z,2.30
2018-08-06T00:11:38.432Z,2.27
2018-08-06T00:12:42.175Z,2.45
2018-08-06T00:13:45.527Z,2.20
2018-08-06T00:14:48.839Z,2.60
2018-08-06T00:15:52.148Z,2.15
2018-08-06T00:16:55.554Z,2.33
2018-08-06T00:17:58.884Z,2.33
2018-08-06T00:19:02.204Z,2.35
2018-08-06T00:20:06.719Z,1.80
2018-08-06T00:21:10.038Z,2.60
2018-08-06T00:22:13.415Z,2.62
2018-08-06T00:23:16.728Z,2.10
2018-08-06T00:24:20.123Z,2.45
2018-08-06T00:25:23.450Z,2.92
2018-08-06T00:26:26.802Z,2.27
2018-08-06T00:27:30.202Z,2.85
2018-08-06T00:28:33.539Z,3.20
2018-08-06T00:29:36.867Z,2.58
2018-08-06T00:30:40.277Z,2.95
2018-08-06T00:31:43.674Z,3.02
2018-08-06T00:32:47.682Z,2.92
2018-08-06T00:33:51.004Z,2.20
2018-08-06T00:35:00.930Z,2.80
2018-08-06T00:36:03.994Z,2.90
2018-08-06T00:37:07.331Z,3.10
2018-08-06T00:38:10.651Z,2.72
2018-08-06T00:39:13.994Z,2.67
2018-08-06T00:40:19.102Z,2.45
2018-08-06T00:41:22.501Z,2.55
2018-08-06T00:42:25.818Z,2.35
2018-08-06T00:43:29.155Z,2.62
2018-08-06T00:44:32.474Z,2.50
2018-08-06T00:45:35.834Z,2.90
2018-08-06T00:46:39.506Z,2.87
2018-08-06T00:47:42.944Z,2.50
2018-08-06T00:48:46.351Z,2.80
2018-08-06T00:49:49.674Z,2.75
2018-08-06T00:50:52.999Z,2.90
2018-08-06T00:51:56.310Z,2.50
2018-08-06T00:52:59.614Z,2.22
2018-08-06T00:54:02.992Z,3.05
2018-08-06T00:55:08.455Z,2.60
2018-08-06T00:56:11.815Z,2.30
2018-08-06T00:57:15.147Z,2.02
2018-08-06T00:58:18.495Z,2.40
2018-08-06T00:59:21.859Z,2.45
2018-08-06T01:00:25.192Z,2.50
2018-08-06T01:01:28.544Z,2.47
2018-08-06T01:02:31.919Z,2.42
2018-08-06T01:03:35.243Z,2.60
2018-08-06T01:04:38.654Z,2.15
2018-08-06T01:05:41.989Z,2.65
2018-08-06T01:06:45.322Z,2.40
2018-08-06T01:07:48.643Z,2.20
2018-08-06T01:08:51.990Z,3.20
2018-08-06T01:09:55.379Z,2.42
2018-08-06T01:10:58.703Z,2.45
2018-08-06T01:12:02.047Z,2.85
2018-08-06T01:13:05.388Z,2.65
2018-08-06T01:14:08.467Z,2.47
2018-08-06T01:15:14.474Z,2.58
2018-08-06T01:16:17.844Z,2.25
2018-08-06T01:17:21.171Z,2.27
2018-08-06T01:18:24.521Z,3.12
2018-08-06T01:19:27.906Z,3.00
2018-08-06T01:20:31.257Z,2.58
2018-08-06T01:21:34.579Z,2.65
2018-08-06T01:22:38.194Z,2.95
2018-08-06T01:23:41.568Z,2.47
2018-08-06T01:24:44.881Z,2.80
2018-08-06T01:25:48.233Z,2.40
2018-08-06T01:26:51.546Z,2.50
2018-08-06T01:27:54.906Z,2.52
2018-08-06T01:28:58.270Z,2.58
2018-08-06T01:30:01.794Z,2.65
2018-08-06T01:31:05.168Z,2.45
2018-08-06T01:32:09.393Z,2.75
2018-08-06T01:33:12.744Z,2.60
2018-08-06T01:34:16.118Z,2.40
2018-08-06T01:35:19.459Z,3.02
2018-08-06T01:36:22.884Z,2.50
2018-08-06T01:37:26.195Z,2.95
2018-08-06T01:38:29.518Z,2.67
2018-08-06T01:39:32.841Z,2.77
2018-08-06T01:40:36.202Z,2.67
2018-08-06T01:41:39.686Z,2.42
2018-08-06T01:42:43.126Z,2.25
2018-08-06T01:43:46.464Z,2.10
2018-08-06T01:44:49.782Z,2.77
2018-08-06T01:45:53.124Z,2.85
2018-08-06T01:46:56.503Z,2.37
2018-08-06T01:47:59.823Z,2.35
2018-08-06T01:49:03.135Z,2.60
2018-08-06T01:50:07.155Z,2.45
2018-08-06T01:51:10.519Z,2.80
2018-08-06T01:52:13.872Z,2.55
2018-08-06T01:53:17.174Z,2.12
2018-08-06T01:54:20.492Z,2.72
2018-08-06T01:55:23.815Z,2.35
2018-08-06T01:56:27.127Z,2.60
2018-08-06T01:57:30.599Z,2.65
2018-08-06T01:58:33.946Z,2.65
2018-08-06T01:59:37.271Z,2.10
2018-08-06T02:00:40.578Z,2.65
2018-08-06T02:01:43.927Z,2.72
2018-08-06T02:02:47.295Z,2.40
2018-08-06T02:03:50.623Z,2.80
2018-08-06T02:04:53.971Z,2.80
2018-08-06T02:05:57.042Z,2.62
2018-08-06T02:07:00.347Z,2.87
2018-08-06T02:08:03.723Z,2.50
2018-08-06T02:09:07.862Z,2.67
2018-08-06T02:10:13.222Z,2.60
2018-08-06T02:11:16.614Z,2.70
2018-08-06T02:12:19.986Z,2.33
2018-08-06T02:13:23.325Z,2.65
2018-08-06T02:14:26.646Z,2.70
2018-08-06T02:15:30.027Z,2.70
2018-08-06T02:16:33.485Z,2.10
2018-08-06T02:17:37.484Z,2.50
2018-08-06T02:18:40.794Z,2.70
2018-08-06T02:19:44.156Z,2.60
2018-08-06T02:20:47.466Z,3.05
2018-08-06T02:21:50.815Z,2.33
2018-08-06T02:22:54.202Z,2.52
2018-08-06T02:24:00.588Z,2.95
2018-08-06T02:25:04.900Z,2.80
2018-08-06T02:26:08.273Z,2.55
2018-08-06T02:27:11.634Z,2.37
2018-08-06T02:28:15.008Z,2.95
2018-08-06T02:29:18.353Z,2.67
2018-08-06T02:30:21.839Z,2.95
2018-08-06T02:31:25.188Z,3.10
2018-08-06T02:32:28.533Z,2.90
2018-08-06T02:33:31.902Z,2.70
2018-08-06T02:34:35.258Z,3.15
2018-08-06T02:35:38.616Z,2.50
2018-08-06T02:36:41.966Z,3.70
2018-08-06T02:37:45.391Z,2.47
2018-08-06T02:38:48.738Z,2.60
2018-08-06T02:39:52.131Z,2.65
2018-08-06T02:40:55.517Z,2.60
2018-08-06T02:41:58.844Z,3.05
2018-08-06T02:43:02.151Z,2.95
2018-08-06T02:44:05.505Z,2.90
2018-08-06T02:45:09.674Z,2.90
2018-08-06T02:46:13.060Z,2.83
2018-08-06T02:47:16.377Z,2.80
2018-08-06T02:48:19.732Z,3.00
2018-08-06T02:49:23.052Z,3.47
2018-08-06T02:50:26.403Z,3.12
2018-08-06T02:51:29.786Z,3.10
2018-08-06T02:52:33.154Z,3.10
2018-08-06T02:53:36.493Z,2.95
2018-08-06T02:54:39.883Z,3.10
2018-08-06T02:55:43.230Z,3.15
2018-08-06T02:56:46.607Z,3.20
2018-08-06T02:57:50.028Z,2.90
2018-08-06T02:58:53.389Z,2.98
2018-08-06T02:59:56.743Z,3.00
2018-08-06T03:01:00.076Z,3.10
2018-08-06T03:02:03.423Z,3.60
2018-08-06T03:03:06.790Z,3.00
2018-08-06T03:04:10.312Z,3.50
2018-08-06T03:05:15.150Z,2.92
2018-08-06T03:06:18.479Z,3.05
2018-08-06T03:07:21.799Z,3.20
2018-08-06T03:08:25.156Z,2.67
2018-08-06T03:09:28.491Z,3.33
2018-08-06T03:10:31.825Z,2.90
2018-08-06T03:11:35.134Z,3.40
2018-08-06T03:12:38.494Z,3.12
2018-08-06T03:13:41.897Z,3.50
2018-08-06T03:14:45.239Z,2.90
2018-08-06T03:15:48.590Z,3.02
2018-08-06T03:16:51.953Z,3.05
2018-08-06T03:17:55.278Z,2.80
2018-08-06T03:18:58.670Z,3.33
2018-08-06T03:20:01.999Z,2.62
2018-08-06T03:21:05.347Z,3.40
2018-08-06T03:22:08.669Z,3.02
2018-08-06T03:23:11.978Z,3.05
2018-08-06T03:24:15.371Z,3.20
2018-08-06T03:25:18.699Z,3.10
2018-08-06T03:26:22.051Z,3.00
2018-08-06T03:27:25.383Z,3.10
2018-08-06T03:28:28.711Z,2.65
2018-08-06T03:29:32.428Z,2.40
2018-08-06T03:30:35.527Z,2.98
2018-08-06T03:31:38.857Z,3.58
2018-08-06T03:32:42.547Z,2.77
2018-08-06T03:33:45.922Z,2.95
2018-08-06T03:34:49.240Z,2.90
2018-08-06T03:35:52.803Z,3.00
2018-08-06T03:36:56.146Z,3.40
2018-08-06T03:37:59.459Z,3.33
2018-08-06T03:39:03.074Z,2.55
2018-08-06T03:40:06.705Z,2.50
2018-08-06T03:41:10.023Z,2.55
2018-08-06T03:42:13.341Z,3.20
2018-08-06T03:43:16.640Z,2.70
2018-08-06T03:44:20.002Z,2.90
2018-08-06T03:45:23.334Z,3.17
2018-08-06T03:46:26.679Z,3.52
2018-08-06T03:47:29.974Z,3.20
2018-08-06T03:48:33.275Z,3.22
2018-08-06T03:49:36.588Z,2.90
2018-08-06T03:50:39.958Z,3.58
2018-08-06T03:51:43.283Z,2.85
2018-08-06T03:52:46.629Z,3.33
2018-08-06T03:53:49.951Z,2.90
2018-08-06T03:54:53.662Z,3.55
2018-08-06T03:55:57.002Z,3.02
2018-08-06T03:57:00.355Z,3.25
2018-08-06T03:58:03.910Z,2.95
2018-08-06T03:59:07.218Z,3.45
2018-08-06T04:00:12.392Z,3.20
2018-08-06T04:01:15.768Z,3.62
2018-08-06T04:02:19.091Z,3.87
2018-08-06T04:03:22.472Z,3.65
2018-08-06T04:04:25.797Z,3.37
2018-08-06T04:05:29.123Z,3.42
2018-08-06T04:06:32.432Z,3.30
2018-08-06T04:07:35.765Z,3.75
2018-08-06T04:08:39.102Z,3.35
2018-08-06T04:09:42.410Z,3.27
2018-08-06T04:10:45.728Z,3.35
2018-08-06T04:11:49.038Z,3.60
2018-08-06T04:12:52.415Z,3.27
2018-08-06T04:13:55.735Z,3.58
2018-08-06T04:14:59.059Z,3.25
2018-08-06T04:16:08.699Z,3.30
2018-08-06T04:17:11.999Z,3.60
2018-08-06T04:18:15.326Z,3.50
2018-08-06T04:19:18.660Z,3.20
2018-08-06T04:20:21.970Z,3.27
2018-08-06T04:21:25.375Z,3.27
2018-08-06T04:22:28.698Z,2.80
2018-08-06T04:23:32.043Z,3.25
2018-08-06T04:24:35.350Z,3.27
2018-08-06T04:25:38.641Z,3.12
2018-08-06T04:26:42.047Z,2.98
2018-08-06T04:27:45.382Z,2.90
2018-08-06T04:28:48.715Z,3.22
2018-08-06T04:29:52.043Z,3.00
2018-08-06T04:30:55.384Z,3.62
2018-08-06T04:31:58.782Z,3.10
2018-08-06T04:33:02.161Z,3.05
2018-08-06T04:34:05.618Z,3.30
2018-08-06T04:35:09.385Z,3.40
2018-08-06T04:36:12.737Z,3.15
2018-08-06T04:37:16.101Z,3.60
2018-08-06T04:38:19.425Z,3.90
2018-08-06T04:39:22.742Z,3.33
2018-08-06T04:40:26.099Z,3.58
2018-08-06T04:41:29.427Z,3.12
2018-08-06T04:42:32.796Z,4.15
2018-08-06T04:43:36.170Z,3.83
2018-08-06T04:44:39.477Z,3.45
2018-08-06T04:45:42.794Z,3.45
2018-08-06T04:46:46.098Z,3.22
2018-08-06T04:47:49.414Z,3.67
2018-08-06T04:48:52.839Z,3.67
2018-08-06T04:49:56.179Z,3.10
2018-08-06T04:50:59.491Z,3.65
2018-08-06T04:52:02.811Z,3.80
2018-08-06T04:53:06.185Z,4.00
2018-08-06T04:54:09.548Z,4.00
2018-08-06T04:55:14.030Z,5.00
2018-08-06T04:56:17.414Z,6.03
2018-08-06T04:57:20.761Z,5.65
2018-08-06T04:58:24.085Z,4.75
2018-08-06T04:59:27.505Z,4.35
2018-08-06T05:00:30.835Z,4.20
2018-08-06T05:01:34.157Z,4.10
2018-08-06T05:02:37.471Z,3.90
2018-08-06T05:03:40.794Z,3.50
2018-08-06T05:04:44.159Z,3.85
2018-08-06T05:05:47.488Z,4.53
2018-08-06T05:06:50.880Z,4.50
2018-08-06T05:07:54.215Z,4.33
2018-08-06T05:08:57.535Z,4.80
2018-08-06T05:10:00.891Z,4.40
2018-08-06T05:11:04.254Z,4.78
2018-08-06T05:12:07.719Z,3.80
2018-08-06T05:13:11.050Z,3.77
2018-08-06T05:14:14.370Z,3.90
2018-08-06T05:15:17.755Z,4.35
2018-08-06T05:16:21.115Z,4.12
2018-08-06T05:17:24.458Z,4.65
2018-08-06T05:18:27.778Z,4.40
2018-08-06T05:19:31.189Z,4.60
2018-08-06T05:20:34.519Z,4.25
2018-08-06T05:21:37.980Z,4.30
2018-08-06T05:22:41.299Z,4.67
2018-08-06T05:23:51.287Z,4.47
2018-08-06T05:24:54.619Z,4.47
2018-08-06T05:25:57.991Z,4.42
2018-08-06T05:27:01.055Z,4.85
2018-08-06T05:28:04.424Z,4.67
2018-08-06T05:29:07.751Z,4.45
2018-08-06T05:30:12.734Z,4.28
2018-08-06T05:31:16.204Z,4.10
2018-08-06T05:32:19.551Z,4.28
2018-08-06T05:33:22.866Z,4.10
2018-08-06T05:34:26.216Z,4.00
2018-08-06T05:35:29.600Z,3.85
2018-08-06T05:36:32.978Z,4.28
2018-08-06T05:37:36.302Z,4.10
2018-08-06T05:38:39.648Z,4.67
2018-08-06T05:39:43.015Z,4.53
2018-08-06T05:40:46.343Z,4.58
2018-08-06T05:41:49.755Z,4.33
2018-08-06T05:42:53.115Z,4.70
2018-08-06T05:43:56.758Z,4.70
2018-08-06T05:45:00.110Z,4.22
2018-08-06T05:46:03.440Z,4.47
2018-08-06T05:47:06.851Z,4.40
2018-08-06T05:48:10.217Z,4.00
2018-08-06T05:49:13.569Z,4.53
2018-08-06T05:50:16.885Z,4.50
2018-08-06T05:51:20.257Z,5.03
2018-08-06T05:52:23.622Z,4.80
2018-08-06T05:53:26.940Z,4.70
2018-08-06T05:54:30.271Z,4.05
2018-08-06T05:55:33.577Z,4.37
2018-08-06T05:56:36.947Z,4.12
2018-08-06T05:57:41.317Z,4.55
2018-08-06T05:58:44.631Z,4.37
2018-08-06T05:59:47.971Z,5.00
2018-08-06T06:00:51.298Z,5.10
2018-08-06T06:01:54.690Z,4.67
2018-08-06T06:02:58.058Z,5.00
2018-08-06T06:04:01.423Z,4.83
2018-08-06T06:05:05.223Z,4.42
2018-08-06T06:06:09.042Z,4.47
2018-08-06T06:07:12.355Z,4.87
2018-08-06T06:08:15.722Z,4.50
2018-08-06T06:09:19.042Z,4.55
2018-08-06T06:10:22.395Z,3.83
2018-08-06T06:11:25.705Z,4.50
2018-08-06T06:12:29.023Z,4.12
2018-08-06T06:13:32.398Z,4.50
2018-08-06T06:14:35.739Z,4.95
2018-08-06T06:15:39.059Z,4.62
2018-08-06T06:16:42.383Z,4.47
2018-08-06T06:17:45.753Z,4.47
2018-08-06T06:18:49.119Z,4.30
2018-08-06T06:19:52.457Z,4.58
2018-08-06T06:20:55.782Z,4.33
2018-08-06T06:21:59.139Z,4.78
2018-08-06T06:23:02.473Z,4.75
2018-08-06T06:24:05.879Z,4.65
2018-08-06T06:25:11.360Z,4.37
2018-08-06T06:26:14.764Z,4.22
2018-08-06T06:27:18.129Z,4.70
2018-08-06T06:28:21.474Z,4.40
2018-08-06T06:29:24.865Z,4.65
2018-08-06T06:30:28.192Z,4.30
2018-08-06T06:31:31.622Z,4.80
2018-08-06T06:32:35.095Z,4.65
2018-08-06T06:33:38.473Z,4.28
2018-08-06T06:34:41.882Z,4.53
2018-08-06T06:35:45.211Z,4.35
2018-08-06T06:36:48.623Z,4.50
2018-08-06T06:37:52.209Z,4.30
2018-08-06T06:38:55.529Z,4.22
2018-08-06T06:39:58.850Z,4.75
2018-08-06T06:41:02.195Z,4.30
2018-08-06T06:42:05.645Z,4.85
2018-08-06T06:43:08.999Z,3.65
2018-08-06T06:44:12.360Z,4.28
2018-08-06T06:45:15.763Z,5.17
2018-08-06T06:46:19.106Z,3.62
2018-08-06T06:47:22.442Z,3.80
2018-08-06T06:48:25.766Z,4.20
2018-08-06T06:49:29.119Z,4.00
2018-08-06T06:50:32.493Z,3.30
2018-08-06T06:51:35.815Z,3.27
2018-08-06T06:52:45.636Z,3.40
2018-08-06T06:53:48.959Z,4.08
2018-08-06T06:54:53.502Z,3.30
2018-08-06T06:55:56.878Z,3.87
2018-08-06T06:57:00.259Z,3.33
2018-08-06T06:58:03.646Z,3.60
2018-08-06T06:59:06.987Z,3.72
2018-08-06T07:00:11.136Z,3.50
2018-08-06T07:01:14.451Z,3.50
2018-08-06T07:02:17.777Z,3.20
2018-08-06T07:03:21.115Z,2.80
2018-08-06T07:04:24.454Z,3.40
2018-08-06T07:05:27.822Z,3.60
2018-08-06T07:06:31.247Z,3.85
2018-08-06T07:07:34.792Z,3.40
2018-08-06T07:08:38.131Z,4.08
2018-08-06T07:09:41.435Z,3.22
2018-08-06T07:10:44.878Z,2.92
2018-08-06T07:11:48.230Z,3.80
2018-08-06T07:12:51.570Z,3.30
2018-08-06T07:13:54.970Z,3.67
2018-08-06T07:14:58.301Z,3.12
2018-08-06T07:16:01.670Z,3.12
2018-08-06T07:17:05.048Z,3.00
2018-08-06T07:18:08.494Z,2.87
2018-08-06T07:19:11.850Z,3.50
2018-08-06T07:20:16.498Z,3.25
2018-08-06T07:21:19.873Z,3.40
2018-08-06T07:22:23.247Z,2.83
2018-08-06T07:23:26.589Z,3.35
2018-08-06T07:24:29.946Z,3.05
2018-08-06T07:25:33.293Z,3.30
2018-08-06T07:26:36.370Z,3.42
2018-08-06T07:27:40.792Z,2.90
2018-08-06T07:28:44.151Z,3.35
2018-08-06T07:29:47.513Z,3.55
2018-08-06T07:30:50.845Z,3.55
2018-08-06T07:31:54.163Z,3.27
2018-08-06T07:32:57.513Z,3.27
2018-08-06T07:34:00.854Z,3.42
2018-08-06T07:35:04.724Z,3.15
2018-08-06T07:36:08.035Z,3.00
2018-08-06T07:37:11.369Z,2.40
2018-08-06T07:38:14.693Z,2.47
2018-08-06T07:39:18.035Z,2.70
2018-08-06T07:40:21.490Z,3.87
2018-08-06T07:41:24.860Z,2.60
2018-08-06T07:42:28.206Z,2.47
2018-08-06T07:43:31.575Z,2.80
2018-08-06T07:44:34.922Z,2.75
2018-08-06T07:45:38.300Z,2.85
2018-08-06T07:46:48.098Z,2.97
2018-08-06T07:47:51.435Z,3.02
2018-08-06T07:48:54.788Z,2.80
2018-08-06T07:49:58.207Z,2.65
2018-08-06T07:51:01.556Z,2.98
2018-08-06T07:52:04.910Z,2.77
2018-08-06T07:53:08.283Z,2.25
2018-08-06T07:54:11.635Z,2.58
2018-08-06T07:55:15.052Z,2.40
2018-08-06T07:56:18.429Z,2.43
2018-08-06T07:57:21.752Z,2.63
2018-08-06T07:58:25.130Z,2.50
2018-08-06T07:59:35.211Z,3.70
2018-08-06T08:00:38.605Z,2.20
2018-08-06T08:01:42.058Z,2.23
2018-08-06T08:02:45.449Z,2.07
2018-08-06T08:03:48.807Z,2.43
2018-08-06T08:04:52.139Z,2.20
2018-08-06T08:05:55.477Z,2.13
2018-08-06T08:06:58.868Z,2.03
2018-08-06T08:08:02.218Z,2.13
2018-08-06T08:09:08.460Z,2.07
2018-08-06T08:10:14.426Z,1.87
2018-08-06T08:11:17.778Z,1.87
2018-08-06T08:12:21.152Z,2.03
2018-08-06T08:13:24.487Z,2.67
2018-08-06T08:14:27.838Z,1.97
2018-08-06T08:15:31.261Z,2.30
2018-08-06T08:16:35.360Z,1.60
2018-08-06T08:17:38.696Z,1.63
2018-08-06T08:18:42.113Z,1.90
2018-08-06T08:19:45.529Z,1.83
2018-08-06T08:20:48.854Z,2.00
2018-08-06T08:21:52.199Z,1.80
2018-08-06T08:22:55.559Z,1.80
2018-08-06T08:23:58.982Z,2.43
2018-08-06T08:25:02.322Z,1.27
2018-08-06T08:26:05.798Z,1.43
2018-08-06T08:27:09.214Z,1.93
2018-08-06T08:28:12.556Z,1.60
2018-08-06T08:29:15.923Z,1.83
2018-08-06T08:30:19.684Z,1.90
2018-08-06T08:31:23.071Z,2.50
2018-08-06T08:32:26.426Z,1.50
2018-08-06T08:33:29.766Z,1.70
2018-08-06T08:34:33.088Z,1.50
2018-08-06T08:35:36.497Z,1.67
2018-08-06T08:36:39.879Z,1.60
2018-08-06T08:37:43.396Z,2.20
2018-08-06T08:38:46.706Z,2.10
2018-08-06T08:39:50.052Z,2.20
2018-08-06T08:40:53.417Z,1.53
2018-08-06T08:41:56.795Z,1.80
2018-08-06T08:44:09.831Z,1.90
2018-08-06T08:45:15.282Z,2.10
2018-08-06T08:46:18.603Z,1.60
2018-08-06T08:47:22.001Z,1.80
2018-08-06T08:48:25.323Z,1.40
2018-08-06T08:49:28.673Z,1.80
2018-08-06T08:50:32.246Z,1.63
2018-08-06T08:51:35.587Z,1.50
2018-08-06T08:52:39.480Z,1.80
2018-08-06T08:53:42.831Z,1.73
2018-08-06T08:54:46.366Z,1.83
2018-08-06T08:55:49.665Z,1.57
2018-08-06T08:56:52.987Z,1.90
2018-08-06T08:57:56.344Z,1.80
2018-08-06T08:58:59.749Z,1.23
2018-08-06T09:00:03.355Z,1.50
2018-08-06T09:01:06.692Z,1.70
2018-08-06T09:02:10.020Z,1.70
2018-08-06T09:03:13.414Z,1.30
2018-08-06T09:04:16.741Z,1.30
2018-08-06T09:05:20.445Z,1.10
2018-08-06T09:06:23.780Z,1.47
2018-08-06T09:07:27.204Z,1.13
2018-08-06T09:08:30.530Z,1.30
2018-08-06T09:09:33.835Z,1.23
2018-08-06T09:10:37.186Z,1.70
2018-08-06T09:11:40.523Z,1.00
2018-08-06T09:12:44.007Z,1.00
2018-08-06T09:13:47.346Z,1.43
2018-08-06T09:14:50.666Z,1.17
2018-08-06T09:15:53.986Z,1.30
2018-08-06T09:16:57.295Z,1.00
2018-08-06T09:18:00.670Z,1.27
2018-08-06T09:19:04.003Z,1.00
2018-08-06T09:20:07.482Z,1.00
2018-08-06T09:21:10.890Z,1.20
2018-08-06T09:22:14.229Z,1.10
2018-08-06T09:23:17.301Z,1.20
2018-08-06T09:24:20.693Z,1.17
2018-08-06T09:25:24.010Z,1.23
2018-08-06T09:26:27.334Z,1.20
2018-08-06T09:27:30.724Z,1.10
2018-08-06T09:28:34.070Z,1.10
2018-08-06T09:29:37.459Z,1.30
2018-08-06T09:30:40.816Z,1.57
2018-08-06T09:31:44.148Z,1.47
2018-08-06T09:32:52.940Z,1.00
2018-08-06T09:33:56.323Z,1.13
2018-08-06T09:34:59.620Z,1.20
2018-08-06T09:37:12.483Z,1.50
2018-08-06T09:38:15.838Z,1.10
2018-08-06T09:39:19.234Z,1.40
2018-08-06T09:40:23.436Z,1.40
2018-08-06T09:41:27.029Z,1.37
2018-08-06T09:42:30.388Z,1.10
2018-08-06T09:43:33.756Z,1.03
2018-08-06T09:44:37.109Z,1.20
2018-08-06T09:45:40.431Z,1.00
2018-08-06T09:46:43.751Z,1.10
2018-08-06T09:47:48.462Z,1.20
2018-08-06T09:48:51.831Z,0.90
2018-08-06T09:49:55.150Z,1.20
2018-08-06T09:50:58.479Z,1.10
2018-08-06T09:52:01.818Z,1.10
2018-08-06T09:53:05.245Z,1.50
2018-08-06T09:54:08.661Z,0.83
2018-08-06T09:55:14.338Z,1.20
2018-08-06T09:56:17.671Z,1.23
2018-08-06T09:57:21.008Z,1.27
2018-08-06T09:58:24.363Z,1.23
2018-08-06T09:59:27.683Z,1.20
2018-08-06T10:00:36.354Z,1.40
2018-08-06T10:01:45.100Z,1.27
2018-08-06T10:02:49.278Z,1.20
2018-08-06T10:03:52.690Z,1.20
2018-08-06T10:04:56.023Z,1.00
2018-08-06T10:05:59.571Z,1.20
2018-08-06T10:07:02.714Z,0.80
2018-08-06T10:08:06.049Z,1.03
2018-08-06T10:09:10.558Z,1.20
2018-08-06T10:10:14.146Z,1.10
2018-08-06T10:11:17.455Z,1.00
2018-08-06T10:12:20.765Z,1.10
2018-08-06T10:13:24.098Z,1.10
2018-08-06T10:14:27.214Z,1.27
2018-08-06T10:15:30.551Z,1.17
2018-08-06T10:16:33.878Z,1.27
2018-08-06T10:17:37.222Z,1.00
2018-08-06T10:18:40.540Z,1.10
2018-08-06T10:19:50.385Z,1.20
2018-08-06T10:20:53.699Z,1.20
2018-08-06T10:21:57.036Z,1.13
2018-08-06T10:23:00.357Z,1.03
2018-08-06T10:24:03.702Z,1.10
2018-08-06T10:25:08.519Z,1.13
2018-08-06T10:26:11.842Z,1.10
2018-08-06T10:27:15.159Z,1.17
2018-08-06T10:28:18.491Z,1.00
2018-08-06T10:29:21.795Z,1.07
2018-08-06T10:30:25.188Z,1.30
2018-08-06T10:31:28.480Z,1.20
2018-08-06T10:32:31.871Z,1.00
2018-08-06T10:33:35.195Z,0.90
2018-08-06T10:34:45.367Z,0.90
2018-08-06T10:35:48.707Z,1.00
2018-08-06T10:36:52.027Z,0.90
2018-08-06T10:37:55.347Z,1.20
2018-08-06T10:38:58.778Z,1.10
2018-08-06T10:40:02.098Z,1.20
2018-08-06T10:41:05.486Z,1.00
2018-08-06T10:42:08.823Z,1.07
2018-08-06T10:43:12.126Z,1.10
2018-08-06T10:44:15.419Z,1.10
2018-08-06T10:45:19.898Z,1.00
2018-08-06T10:46:23.255Z,1.00
2018-08-06T10:47:26.576Z,0.83
2018-08-06T10:48:29.945Z,0.83
2018-08-06T10:49:33.219Z,1.30
2018-08-06T10:50:36.551Z,0.90
2018-08-06T10:51:39.898Z,1.00
2018-08-06T10:52:43.206Z,1.20
2018-08-06T10:53:46.558Z,0.97
2018-08-06T10:54:49.854Z,1.00
2018-08-06T10:55:53.176Z,1.00
2018-08-06T10:56:56.758Z,0.93
2018-08-06T10:58:00.061Z,1.10
2018-08-06T10:59:03.416Z,1.07
2018-08-06T11:00:11.479Z,1.17
2018-08-06T11:01:14.868Z,1.30
2018-08-06T11:02:18.178Z,1.37
2018-08-06T11:03:21.494Z,0.90
2018-08-06T11:04:24.834Z,1.20
2018-08-06T11:05:28.168Z,1.00
2018-08-06T11:06:31.534Z,1.20
2018-08-06T11:07:34.874Z,1.00
2018-08-06T11:08:38.254Z,1.20
2018-08-06T11:09:48.299Z,1.13
2018-08-06T11:10:51.607Z,1.10
2018-08-06T11:11:54.926Z,0.70
2018-08-06T11:12:58.251Z,1.10
2018-08-06T11:14:01.679Z,1.00
2018-08-06T11:15:07.122Z,1.00
2018-08-06T11:16:10.443Z,1.23
2018-08-06T11:17:13.782Z,0.90
2018-08-06T11:18:17.084Z,1.20
2018-08-06T11:19:20.423Z,1.10
2018-08-06T11:20:24.433Z,1.13
2018-08-06T11:21:27.779Z,1.20
2018-08-06T11:22:31.106Z,0.80
2018-08-06T11:23:34.416Z,0.97
2018-08-06T11:24:37.783Z,0.93
2018-08-06T11:25:41.094Z,1.10
2018-08-06T11:26:44.415Z,1.07
2018-08-06T11:27:47.934Z,1.20
2018-08-06T11:28:51.235Z,0.90
2018-08-06T11:29:54.583Z,1.20
2018-08-06T11:30:57.899Z,1.10
2018-08-06T11:32:01.235Z,1.30
2018-08-06T11:33:04.561Z,0.97
2018-08-06T11:34:07.922Z,1.20
2018-08-06T11:35:11.903Z,1.10
2018-08-06T11:36:15.223Z,0.90
2018-08-06T11:37:18.535Z,1.47
2018-08-06T11:38:21.877Z,0.93
2018-08-06T11:39:25.185Z,1.23
2018-08-06T11:40:28.570Z,0.90
2018-08-06T11:41:31.875Z,0.80
2018-08-06T11:42:35.527Z,1.17
2018-08-06T11:43:38.903Z,1.00
2018-08-06T11:44:42.279Z,0.90
2018-08-06T11:45:45.639Z,1.10
2018-08-06T11:46:48.962Z,1.10
2018-08-06T11:47:52.299Z,1.13
2018-08-06T11:48:55.640Z,1.00
2018-08-06T11:49:58.986Z,0.90
2018-08-06T11:51:02.339Z,1.00
2018-08-06T11:52:05.658Z,1.00
2018-08-06T11:53:08.971Z,1.00
2018-08-06T11:54:12.296Z,1.10
2018-08-06T11:55:15.650Z,1.10
2018-08-06T11:56:19.032Z,1.03
2018-08-06T11:57:22.311Z,1.17
2018-08-06T11:58:25.645Z,0.97
2018-08-06T11:59:28.956Z,1.00
2018-08-06T12:00:32.296Z,0.87
2018-08-06T12:01:35.656Z,0.93
2018-08-06T12:02:39.002Z,0.90
2018-08-06T12:03:42.311Z,0.97
2018-08-06T12:04:45.660Z,1.40
2018-08-06T12:05:49.018Z,1.00
2018-08-06T12:06:52.399Z,0.97
2018-08-06T12:07:55.734Z,0.90
2018-08-06T12:08:59.082Z,1.00
2018-08-06T12:10:02.441Z,1.00
2018-08-06T12:11:05.826Z,1.00
2018-08-06T12:12:09.203Z,1.30
2018-08-06T12:13:12.551Z,0.90
2018-08-06T12:14:15.872Z,0.93
2018-08-06T12:15:19.266Z,0.87
2018-08-06T12:16:22.549Z,1.30
2018-08-06T12:17:25.948Z,0.93
2018-08-06T12:18:29.301Z,0.83
2018-08-06T12:19:32.644Z,0.90
2018-08-06T12:20:35.967Z,0.80
2018-08-06T12:21:39.296Z,0.80
2018-08-06T12:22:43.842Z,0.90
2018-08-06T12:23:47.156Z,1.07
2018-08-06T12:24:50.478Z,0.90
2018-08-06T12:25:53.886Z,0.90
2018-08-06T12:26:57.230Z,0.80
2018-08-06T12:28:03.451Z,1.00
2018-08-06T12:29:06.786Z,0.90
2018-08-06T12:30:14.343Z,1.00
2018-08-06T12:31:17.659Z,0.80
2018-08-06T12:32:21.043Z,1.00
2018-08-06T12:33:24.402Z,0.80
2018-08-06T12:34:28.094Z,0.80
2018-08-06T12:35:31.445Z,0.90
2018-08-06T12:36:34.775Z,0.90
2018-08-06T12:37:38.241Z,0.70
2018-08-06T12:38:51.395Z,1.20
2018-08-06T12:39:54.719Z,1.00
2018-08-06T12:40:58.051Z,0.80
2018-08-06T12:42:01.414Z,1.00
2018-08-06T12:43:04.771Z,0.93
2018-08-06T12:44:10.755Z,1.00
2018-08-06T12:45:14.864Z,0.90
2018-08-06T12:46:18.243Z,0.90
2018-08-06T12:47:21.595Z,0.90
2018-08-06T12:48:24.917Z,0.93
2018-08-06T12:49:34.620Z,0.77
2018-08-06T12:50:37.941Z,1.10
2018-08-06T12:51:41.283Z,0.80
2018-08-06T12:52:44.875Z,0.70
2018-08-06T12:53:48.224Z,0.77
2018-08-06T12:54:51.269Z,1.10
2018-08-06T12:55:54.591Z,0.97
2018-08-06T12:56:57.914Z,1.47
2018-08-06T12:58:01.247Z,0.93
2018-08-06T12:59:04.571Z,0.90
2018-08-06T13:00:11.696Z,1.07
2018-08-06T13:01:14.994Z,0.70
2018-08-06T13:02:18.436Z,0.80
2018-08-06T13:03:21.735Z,1.10
2018-08-06T13:04:25.090Z,0.93
2018-08-06T13:05:28.443Z,0.80
2018-08-06T13:06:31.766Z,0.80
2018-08-06T13:07:35.166Z,0.87
2018-08-06T13:08:38.511Z,1.00
2018-08-06T13:09:41.846Z,0.83
2018-08-06T13:10:45.170Z,0.70
2018-08-06T13:11:48.490Z,0.90
2018-08-06T13:12:51.883Z,0.80
2018-08-06T13:13:55.263Z,1.00
2018-08-06T13:14:58.578Z,0.77
2018-08-06T13:16:01.930Z,0.93
2018-08-06T13:17:05.598Z,0.90
2018-08-06T13:18:09.029Z,0.90
2018-08-06T13:19:12.330Z,0.70
2018-08-06T13:20:15.656Z,0.80
2018-08-06T13:21:19.018Z,0.90
2018-08-06T13:22:22.380Z,0.90
2018-08-06T13:23:25.745Z,1.10
2018-08-06T13:24:29.071Z,1.03
2018-08-06T13:25:32.410Z,0.70
2018-08-06T13:26:35.734Z,0.80
2018-08-06T13:27:39.074Z,0.90
2018-08-06T13:28:42.547Z,0.90
2018-08-06T13:29:45.875Z,1.10
2018-08-06T13:30:49.195Z,0.80
2018-08-06T13:31:52.519Z,1.00
2018-08-06T13:32:55.847Z,0.90
2018-08-06T13:33:59.205Z,0.83
2018-08-06T13:35:02.539Z,0.70
2018-08-06T13:36:05.915Z,0.80
2018-08-06T13:37:09.316Z,0.83
2018-08-06T13:38:12.685Z,0.90
2018-08-06T13:39:16.020Z,0.80
2018-08-06T13:40:19.395Z,0.80
2018-08-06T13:41:22.721Z,1.10
2018-08-06T13:42:26.062Z,1.00
2018-08-06T13:43:29.430Z,0.90
2018-08-06T13:44:32.793Z,0.80
2018-08-06T13:45:35.845Z,0.80
2018-08-06T13:46:39.268Z,0.73
2018-08-06T13:47:42.716Z,0.80
2018-08-06T13:48:46.118Z,0.70
2018-08-06T13:49:49.189Z,0.70
2018-08-06T13:50:52.538Z,1.00
2018-08-06T13:51:55.895Z,0.80
2018-08-06T13:52:59.301Z,0.80
2018-08-06T13:54:02.626Z,0.80
2018-08-06T13:55:07.156Z,1.60
2018-08-06T13:56:10.471Z,0.77
2018-08-06T13:57:13.789Z,1.00
2018-08-06T13:58:17.143Z,0.60
2018-08-06T13:59:20.581Z,0.80
2018-08-06T14:00:23.940Z,0.80
2018-08-06T14:01:27.257Z,0.80
2018-08-06T14:02:30.630Z,0.80
2018-08-06T14:03:33.975Z,0.80
2018-08-06T14:04:37.358Z,1.00
2018-08-06T14:05:40.687Z,0.90
2018-08-06T14:06:44.019Z,0.90
2018-08-06T14:07:48.481Z,0.90